Time;durP1;ratioP1;P1;durP2;ratioP2;P2;SDS_P1;SDS_P2;PMS_P1;PMS_P2;Temp;Humidity;BMP_temperature;BMP_pressure;BME280_temperature;BME280_humidity;BME280_pressure;Samples;Min_cycle;Max_cycle;Signal;HPM_P1;HPM_P2
2023/03/26 00:01:45;;;;;;;5.68;1.48;;;;;;;6.40;100.00;98320.81;5018726;28;20029;-78
2023/03/26 00:04:10;;;;;;;5.25;1.00;;;;;;;6.62;100.00;98337.78;5033197;28;20029;-78
2023/03/26 00:06:38;;;;;;;4.78;1.05;;;;;;;6.61;100.00;98328.91;5015251;28;20032;-80
2023/03/26 00:09:06;;;;;;;4.88;0.98;;;;;;;6.69;100.00;98347.59;5008331;28;20029;-79
2023/03/26 00:11:32;;;;;;;6.35;0.95;;;;;;;6.83;100.00;98358.50;5032567;28;20164;-81
2023/03/26 00:13:57;;;;;;;3.70;0.90;;;;;;;6.80;100.00;98355.16;5033813;28;20068;-79
2023/03/26 00:16:26;;;;;;;3.75;1.00;;;;;;;6.90;100.00;98364.78;5037794;28;20072;-79
2023/03/26 00:18:52;;;;;;;7.13;0.95;;;;;;;6.76;100.00;98353.06;5014814;28;20029;-82
2023/03/26 00:21:21;;;;;;;2.47;0.65;;;;;;;6.62;100.00;98335.94;5013167;28;20030;-83
2023/03/26 00:23:47;;;;;;;3.05;0.70;;;;;;;6.67;100.00;98359.56;5030464;28;20025;-79
2023/03/26 00:26:14;;;;;;;4.68;0.65;;;;;;;6.47;100.00;98329.75;5013923;28;20034;-79
2023/03/26 00:28:41;;;;;;;4.95;0.60;;;;;;;6.45;100.00;98326.44;5015177;28;20029;-80
2023/03/26 00:31:10;;;;;;;3.75;1.38;;;;;;;6.57;100.00;98344.56;5037622;28;20112;-79
2023/03/26 00:33:37;;;;;;;3.88;1.02;;;;;;;6.52;100.00;98341.63;5028138;28;20028;-79
2023/03/26 00:36:04;;;;;;;3.67;1.20;;;;;;;6.56;100.00;98345.59;5020998;28;20079;-79
2023/03/26 00:38:32;;;;;;;7.30;1.27;;;;;;;6.49;100.00;98341.16;5018327;28;20088;-80
2023/03/26 00:41:04;;;;;;;5.80;1.45;;;;;;;6.55;100.00;98343.13;5019053;28;20025;-79
2023/03/26 00:43:31;;;;;;;3.75;0.98;;;;;;;6.48;100.00;98350.25;5014961;28;20022;-79
2023/03/26 00:45:57;;;;;;;5.78;1.13;;;;;;;6.40;100.00;98331.56;5016018;28;21992;-82
2023/03/26 00:48:22;;;;;;;6.82;1.30;;;;;;;6.27;100.00;98310.72;5018490;28;20033;-79
2023/03/26 00:50:49;;;;;;;4.18;1.20;;;;;;;6.30;100.00;98326.47;5035507;28;20041;-79
2023/03/26 00:53:15;;;;;;;9.25;1.52;;;;;;;6.26;100.00;98309.03;5017897;28;20025;-83
2023/03/26 00:55:43;;;;;;;6.25;1.33;;;;;;;6.33;100.00;98318.84;5010905;28;20112;-80
2023/03/26 00:58:09;;;;;;;2.75;0.80;;;;;;;6.33;100.00;98308.09;5020297;28;20144;-79
2023/03/26 01:00:57;;;;;;;6.18;1.02;;;;;;;6.13;100.00;98277.47;5013479;28;20064;-82
2023/03/26 01:03:29;;;;;;;1.92;0.70;;;;;;;6.39;100.00;98298.44;5016559;28;20037;-81
2023/03/26 01:06:03;;;;;;;2.65;0.90;;;;;;;6.10;100.00;98242.94;5031550;28;20543;-80
2023/03/26 01:08:31;;;;;;;5.43;0.93;;;;;;;6.35;100.00;98259.56;5018743;28;20483;-84
2023/03/26 01:11:03;;;;;;;4.97;1.10;;;;;;;6.33;100.00;98262.44;5028602;28;20034;-78
2023/03/26 01:13:33;;;;;;;4.97;1.13;;;;;;;6.29;100.00;98245.03;5035246;28;20553;-84
2023/03/26 01:16:00;;;;;;;4.35;0.95;;;;;;;6.44;100.00;98281.78;5035753;28;20049;-80
2023/03/26 01:18:28;;;;;;;5.05;0.93;;;;;;;6.25;100.00;98249.13;5018373;28;20026;-80
2023/03/26 01:21:04;;;;;;;5.80;1.10;;;;;;;6.36;100.00;98256.69;5028065;28;20044;-81
2023/03/26 01:23:39;;;;;;;6.05;1.30;;;;;;;6.41;100.00;98253.44;5015347;28;20534;-83
2023/03/26 01:26:40;;;;;;;3.97;1.48;;;;;;;6.34;100.00;98249.81;5033182;28;20060;-84
2023/03/26 01:29:15;;;;;;;3.90;1.20;;;;;;;6.28;100.00;98240.69;5029205;28;20396;-79
2023/03/26 01:31:59;;;;;;;6.07;1.10;;;;;;;6.32;100.00;98247.34;5012054;28;20028;-78
2023/03/26 01:34:48;;;;;;;6.43;1.15;;;;;;;6.26;100.00;98258.00;5035656;28;20020;-79
2023/03/26 01:37:31;;;;;;;4.85;0.98;;;;;;;6.14;100.00;98228.13;5020446;28;20045;-81
2023/03/26 01:40:04;;;;;;;8.95;1.40;;;;;;;6.20;100.00;98237.28;5005723;28;20487;-79
2023/03/26 01:42:55;;;;;;;6.28;0.88;;;;;;;6.07;100.00;98217.31;5010510;28;20029;-79
2023/03/26 01:45:26;;;;;;;4.93;1.20;;;;;;;5.99;100.00;98212.03;5025178;28;20541;-79
2023/03/26 01:47:52;;;;;;;5.75;1.33;;;;;;;6.12;100.00;98224.78;5032549;28;20067;-79
2023/03/26 01:50:17;;;;;;;5.45;1.35;;;;;;;6.10;100.00;98224.16;5016520;28;20022;-79
2023/03/26 01:52:42;;;;;;;4.18;1.10;;;;;;;6.11;100.00;98215.09;5029733;28;20602;-80
2023/03/26 01:55:10;;;;;;;4.03;1.10;;;;;;;5.98;100.00;98201.50;5015165;28;20123;-79
2023/03/26 01:57:57;;;;;;;2.67;0.90;;;;;;;6.15;100.00;98222.56;5015371;28;20014;-79
2023/03/26 02:00:31;;;;;;;3.13;1.23;;;;;;;6.20;100.00;98219.31;5009994;28;20156;-80
2023/03/26 02:03:16;;;;;;;5.47;1.00;;;;;;;6.03;100.00;98196.41;5016135;28;20029;-80
2023/03/26 02:05:59;;;;;;;4.55;1.10;;;;;;;6.17;100.00;98206.25;5017096;28;20025;-78
2023/03/26 02:08:36;;;;;;;2.85;0.93;;;;;;;6.17;100.00;98208.13;5016913;28;20029;-79
2023/03/26 02:11:09;;;;;;;2.83;0.82;;;;;;;6.08;100.00;98184.06;5016384;28;20110;-79
2023/03/26 02:13:35;;;;;;;6.88;0.95;;;;;;;6.09;100.00;98174.16;5034414;28;20017;-80
2023/03/26 02:16:03;;;;;;;7.55;1.20;;;;;;;6.09;100.00;98174.16;5018515;28;20033;-81
2023/03/26 02:18:35;;;;;;;3.55;0.93;;;;;;;6.04;100.00;98152.41;5013973;28;20483;-81
2023/03/26 02:21:19;;;;;;;7.55;1.10;;;;;;;5.92;100.00;98147.53;5009680;28;20041;-81
2023/03/26 02:23:46;;;;;;;4.88;1.13;;;;;;;5.90;100.00;98138.81;5011130;28;20025;-74
2023/03/26 02:26:13;;;;;;;4.50;1.40;;;;;;;5.88;100.00;98156.97;5033206;28;20029;-75
2023/03/26 02:28:39;;;;;;;3.35;1.10;;;;;;;5.70;100.00;98159.22;5036345;28;20550;-75
2023/03/26 02:31:08;;;;;;;5.05;1.10;;;;;;;5.55;100.00;98145.00;5034287;28;20029;-75
2023/03/26 02:33:33;;;;;;;;;;;;;;;5.57;100.00;98159.88;5033808;28;20022;-76
2023/03/26 02:36:00;;;;;;;7.40;1.02;;;;;;;5.46;100.00;98136.22;5018607;28;20395;-75
2023/03/26 02:38:32;;;;;;;2.15;1.02;;;;;;;5.48;100.00;98135.03;5022538;28;20024;-75
2023/03/26 02:40:59;;;;;;;5.65;1.25;;;;;;;5.47;100.00;98125.28;5016842;28;20064;-75
2023/03/26 02:43:24;;;;;;;6.35;1.35;;;;;;;5.43;100.00;98115.97;5028746;28;20384;-75
2023/03/26 02:45:50;;;;;;;3.72;1.30;;;;;;;5.58;100.00;98148.16;5030005;28;20029;-75
2023/03/26 02:48:15;;;;;;;7.15;1.13;;;;;;;5.51;100.00;98111.53;5016596;28;20053;-74
2023/03/26 02:50:41;;;;;;;8.05;1.60;;;;;;;5.66;100.00;98134.63;5014239;28;20616;-74
2023/03/26 02:53:07;;;;;;;3.70;1.55;;;;;;;5.53;100.00;98114.81;5033496;28;20037;-75
2023/03/26 02:55:32;;;;;;;3.25;1.20;;;;;;;5.53;100.00;98110.31;5024342;28;20026;-74
2023/03/26 02:57:58;;;;;;;3.92;1.00;;;;;;;5.55;100.00;98123.53;5028823;28;20083;-74
2023/03/26 03:00:24;;;;;;;2.47;1.00;;;;;;;5.57;100.00;98119.63;5023763;28;20132;-74
2023/03/26 03:02:51;;;;;;;4.60;1.40;;;;;;;5.64;100.00;98119.72;5012646;28;20678;-75
2023/03/26 03:05:17;;;;;;;7.18;1.45;;;;;;;5.75;100.00;98110.34;5021173;28;20025;-74
2023/03/26 03:07:45;;;;;;;5.78;2.15;;;;;;;5.74;100.00;98114.91;5033600;28;20391;-74
2023/03/26 03:10:14;;;;;;;4.55;1.83;;;;;;;5.72;100.00;98114.25;5015127;28;20498;-74
2023/03/26 03:12:40;;;;;;;3.78;1.05;;;;;;;5.62;100.00;98108.34;5035942;28;20029;-74
2023/03/26 03:15:06;;;;;;;5.30;1.40;;;;;;;5.55;100.00;98091.34;5029421;28;20114;-74
2023/03/26 03:17:32;;;;;;;2.85;1.08;;;;;;;5.58;100.00;98088.25;5013594;28;20432;-74
2023/03/26 03:19:57;;;;;;;5.20;1.33;;;;;;;5.79;100.00;98099.06;5025596;28;20064;-75
2023/03/26 03:22:22;;;;;;;3.72;1.67;;;;;;;5.89;100.00;98098.72;5015751;28;20021;-74
2023/03/26 03:24:47;;;;;;;5.90;1.02;;;;;;;5.89;100.00;98094.22;5032265;28;20025;-74
2023/03/26 03:27:14;;;;;;;5.57;1.40;;;;;;;6.03;100.00;98086.31;5014939;28;20044;-74
2023/03/26 03:29:40;;;;;;;3.13;0.98;;;;;;;6.04;100.00;98085.28;5032961;28;20026;-75
2023/03/26 03:32:05;;;;;;;3.63;1.00;;;;;;;6.05;100.00;98086.94;5013253;28;20094;-75
2023/03/26 03:34:30;;;;;;;4.72;0.88;;;;;;;6.04;100.00;98080.72;5013872;28;20021;-74
2023/03/26 03:36:56;;;;;;;3.53;0.80;;;;;;;5.82;100.00;98044.97;5032635;28;20502;-74
2023/03/26 03:39:21;;;;;;;3.53;1.00;;;;;;;5.86;100.00;98034.69;5019618;28;20029;-76
2023/03/26 03:41:48;;;;;;;6.53;1.33;;;;;;;6.04;100.00;98066.47;5018751;28;20028;-75
2023/03/26 03:44:13;;;;;;;6.43;0.88;;;;;;;6.02;100.00;98055.09;5029888;28;20033;-75
2023/03/26 03:46:38;;;;;;;5.78;0.95;;;;;;;6.05;100.00;98060.94;5017189;28;20494;-75
2023/03/26 03:49:03;;;;;;;2.45;0.80;;;;;;;5.98;100.00;98043.91;5031066;28;20029;-74
2023/03/26 03:51:29;;;;;;;5.05;1.15;;;;;;;6.08;100.00;98038.22;5032161;28;20108;-74
2023/03/26 03:53:54;;;;;;;6.05;1.65;;;;;;;6.00;100.00;98025.78;5022650;28;20025;-75
2023/03/26 03:56:22;;;;;;;3.88;1.00;;;;;;;6.01;100.00;98026.59;5026162;28;20045;-75
2023/03/26 03:58:49;;;;;;;4.03;0.82;;;;;;;6.13;100.00;98035.78;5027085;28;20107;-75
2023/03/26 04:01:15;;;;;;;2.38;0.75;;;;;;;6.12;100.00;98031.44;5027511;28;20104;-75
2023/03/26 04:03:44;;;;;;;4.43;0.85;;;;;;;6.04;100.00;98004.72;5011877;28;20422;-75
2023/03/26 04:06:10;;;;;;;3.60;1.15;;;;;;;6.02;100.00;98002.22;5013713;28;20033;-75
2023/03/26 04:08:36;;;;;;;5.78;1.13;;;;;;;6.05;100.00;97990.25;5032166;28;20545;-75
2023/03/26 04:11:01;;;;;;;2.70;0.90;;;;;;;6.10;100.00;98001.25;5032504;28;20060;-75
2023/03/26 04:13:27;;;;;;;2.95;0.88;;;;;;;6.21;100.00;98002.56;5029669;28;20060;-75
2023/03/26 04:15:52;;;;;;;2.88;0.98;;;;;;;6.20;100.00;97999.06;5022223;28;20080;-75
2023/03/26 04:18:19;;;;;;;5.00;0.85;;;;;;;6.29;100.00;98005.13;5032300;28;20057;-74
2023/03/26 04:20:48;;;;;;;4.85;0.80;;;;;;;6.22;100.00;97983.59;5009642;28;20083;-75
2023/03/26 04:23:14;;;;;;;3.05;0.80;;;;;;;6.36;100.00;98004.13;5014633;28;20087;-75
2023/03/26 04:25:52;;;;;;;4.85;1.10;;;;;;;6.35;100.00;98001.66;5021315;28;20599;-75
2023/03/26 04:28:32;;;;;;;4.45;0.80;;;;;;;6.35;100.00;97998.97;5006215;28;20438;-75
2023/03/26 04:31:00;;;;;;;3.70;1.02;;;;;;;6.38;100.00;97984.31;5004097;28;20137;-75
2023/03/26 04:33:28;;;;;;;6.00;0.90;;;;;;;6.39;100.00;97978.72;5009900;28;20415;-75
2023/03/26 04:35:55;;;;;;;5.05;0.85;;;;;;;6.40;100.00;97966.97;5031144;28;20462;-75
2023/03/26 04:38:21;;;;;;;7.50;0.95;;;;;;;6.53;100.00;97967.06;5013495;28;20033;-75
2023/03/26 04:40:46;;;;;;;5.85;0.90;;;;;;;6.54;100.00;97957.13;5030702;28;20079;-75
2023/03/26 04:43:15;;;;;;;7.15;0.98;;;;;;;6.49;100.00;97954.19;5030529;28;20021;-74
2023/03/26 04:45:40;;;;;;;11.10;0.90;;;;;;;6.46;100.00;97957.28;5012997;28;20025;-75
2023/03/26 04:48:07;;;;;;;5.10;0.82;;;;;;;6.46;100.00;97931.25;5024118;28;20029;-75
2023/03/26 04:50:33;;;;;;;4.72;0.73;;;;;;;6.32;100.00;97914.22;5030276;28;20108;-75
2023/03/26 04:52:58;;;;;;;10.13;1.20;;;;;;;6.48;100.00;97923.81;5013246;28;20507;-75
2023/03/26 04:55:28;;;;;;;4.40;0.75;;;;;;;6.44;100.00;97925.22;5017988;28;20047;-75
2023/03/26 04:57:58;;;;;;;7.60;1.17;;;;;;;6.40;100.00;97913.25;5030027;28;20033;-75
2023/03/26 05:00:24;;;;;;;6.28;1.00;;;;;;;6.31;100.00;97883.03;5028289;28;20033;-75
2023/03/26 05:02:54;;;;;;;3.45;0.70;;;;;;;6.45;100.00;97883.09;5013607;28;20025;-75
2023/03/26 05:05:20;;;;;;;2.10;0.50;;;;;;;6.43;100.00;97871.72;5017726;28;20113;-75
2023/03/26 05:07:45;;;;;;;7.90;1.20;;;;;;;6.33;100.00;97850.59;5030490;28;20029;-75
2023/03/26 05:10:15;;;;;;;5.38;1.17;;;;;;;6.51;100.00;97882.28;5011612;28;20030;-75
2023/03/26 05:12:40;;;;;;;3.35;0.80;;;;;;;6.46;100.00;97879.38;5012457;28;20033;-75
2023/03/26 05:15:07;;;;;;;4.70;1.08;;;;;;;6.56;100.00;97896.78;5011004;28;20400;-75
2023/03/26 05:17:40;;;;;;;6.10;0.93;;;;;;;6.52;100.00;97898.22;5029206;28;20022;-75
2023/03/26 05:20:26;;;;;;;5.45;1.30;;;;;;;6.45;100.00;97893.84;5028370;28;20392;-75
2023/03/26 05:22:51;;;;;;;4.60;1.52;;;;;;;6.46;100.00;97903.56;5024828;28;20036;-75
2023/03/26 05:25:18;;;;;;;7.95;1.63;;;;;;;6.46;100.00;97890.94;5026720;28;20424;-75
2023/03/26 05:27:44;;;;;;;7.03;1.58;;;;;;;6.59;100.00;97895.56;5031167;28;20032;-75
2023/03/26 05:30:14;;;;;;;2.15;0.93;;;;;;;6.68;100.00;97897.06;5012093;28;20057;-74
2023/03/26 05:32:40;;;;;;;6.68;1.52;;;;;;;6.49;100.00;97860.97;5028119;28;20088;-75
2023/03/26 05:35:06;;;;;;;7.78;1.58;;;;;;;6.58;100.00;97867.84;5035362;28;20045;-74
2023/03/26 05:37:31;;;;;;;10.07;1.50;;;;;;;6.64;100.00;97858.16;5031413;28;20014;-74
2023/03/26 05:39:58;;;;;;;4.15;1.20;;;;;;;6.59;100.00;97861.44;5032455;28;20383;-75
2023/03/26 05:42:23;;;;;;;6.25;1.33;;;;;;;6.83;100.00;97861.94;5037228;28;20067;-74
2023/03/26 05:44:49;;;;;;;1.70;0.85;;;;;;;6.73;100.00;97838.13;5019445;28;20053;-74
2023/03/26 05:47:14;;;;;;;8.35;1.10;;;;;;;6.88;100.00;97851.41;5034848;28;20494;-74
2023/03/26 05:49:39;;;;;;;3.55;1.00;;;;;;;6.93;100.00;97850.78;5030528;28;20029;-74
2023/03/26 05:52:05;;;;;;;7.97;1.17;;;;;;;6.91;100.00;97828.66;5018768;28;20061;-74
2023/03/26 05:54:30;;;;;;;3.05;0.80;;;;;;;7.02;100.00;97838.78;5019544;28;20498;-74
2023/03/26 05:56:56;;;;;;;10.05;1.10;;;;;;;6.94;100.00;97820.16;5028472;28;20034;-75
2023/03/26 05:59:22;;;;;;;5.95;0.90;;;;;;;6.92;100.00;97806.94;5014955;28;20463;-75
2023/03/26 06:01:49;;;;;;;5.00;1.20;;;;;;;7.11;100.00;97824.13;5037663;28;20043;-75
2023/03/26 06:04:16;;;;;;;5.00;1.17;;;;;;;6.88;100.00;97791.41;5015563;28;20079;-75
2023/03/26 06:06:41;;;;;;;5.38;1.90;;;;;;;7.08;100.00;97812.97;5028052;28;20033;-75
2023/03/26 06:09:07;;;;;;;2.83;0.90;;;;;;;7.12;100.00;97815.03;5016618;28;20029;-75
2023/03/26 06:11:32;;;;;;;7.82;1.38;;;;;;;7.11;100.00;97810.69;5034703;28;20079;-75
2023/03/26 06:13:58;;;;;;;7.18;1.27;;;;;;;7.07;100.00;97804.06;5033889;28;20021;-75
2023/03/26 06:16:24;;;;;;;7.15;1.35;;;;;;;7.08;100.00;97797.66;5015464;28;20045;-75
2023/03/26 06:18:50;;;;;;;6.60;0.98;;;;;;;6.85;100.00;97764.94;5035834;28;20026;-81
2023/03/26 06:21:25;;;;;;;6.05;0.93;;;;;;;7.02;100.00;97798.47;5039168;28;20025;-81
2023/03/26 06:23:55;;;;;;;6.63;1.35;;;;;;;7.03;100.00;97786.69;5038325;28;20009;-80
2023/03/26 06:26:21;;;;;;;8.75;1.77;;;;;;;7.18;100.00;97781.94;5036999;28;20009;-81
2023/03/26 06:28:46;;;;;;;4.40;0.90;;;;;;;7.27;100.00;97771.78;5027824;28;20033;-81
2023/03/26 06:31:11;;;;;;;4.03;1.00;;;;;;;7.38;100.00;97759.56;5019677;28;20026;-79
2023/03/26 06:33:37;;;;;;;7.18;1.10;;;;;;;7.50;100.00;97767.84;5035418;28;20064;-84
2023/03/26 06:36:02;;;;;;;10.10;1.20;;;;;;;7.27;100.00;97734.13;5005542;28;20476;-84
2023/03/26 06:38:28;;;;;;;6.75;0.98;;;;;;;7.23;100.00;97739.09;5004103;28;20026;-86
2023/03/26 06:40:53;;;;;;;6.35;1.25;;;;;;;7.13;100.00;97708.28;5020063;28;20034;-84
2023/03/26 06:43:18;;;;;;;6.38;1.15;;;;;;;7.24;100.00;97718.41;5002798;28;20064;-90
2023/03/26 06:45:44;;;;;;;5.35;1.25;;;;;;;7.54;100.00;97732.22;5027868;28;20067;-86
2023/03/26 06:48:09;;;;;;;7.72;1.70;;;;;;;7.21;100.00;97673.09;5022860;28;20028;-82
2023/03/26 06:50:35;;;;;;;8.55;1.33;;;;;;;7.52;100.00;97690.41;5039701;28;20406;-86
2023/03/26 06:53:00;;;;;;;6.43;1.45;;;;;;;7.73;100.00;97700.06;5023206;28;20026;-84
2023/03/26 06:55:26;;;;;;;3.90;1.05;;;;;;;7.89;100.00;97708.50;5036700;28;20025;-81
2023/03/26 06:57:53;;;;;;;1.73;0.75;;;;;;;7.93;100.00;97686.53;5019671;28;20034;-77
2023/03/26 07:00:19;;;;;;;2.92;0.75;;;;;;;7.97;100.00;97683.22;5029979;28;20026;-81
2023/03/26 07:02:45;;;;;;;8.98;1.08;;;;;;;8.05;100.00;97674.88;5016043;28;20029;-85
2023/03/26 07:05:11;;;;;;;3.20;0.95;;;;;;;8.18;100.00;97689.34;5027425;28;20148;-86
2023/03/26 07:07:37;;;;;;;12.07;2.40;;;;;;;8.18;100.00;97690.16;5031752;28;20025;-87
2023/03/26 07:10:03;;;;;;;9.30;1.48;;;;;;;8.11;100.00;97676.69;5028641;28;20101;-83
2023/03/26 07:12:28;;;;;;;13.48;2.22;;;;;;;7.86;100.00;97635.41;5029291;28;20544;-86
2023/03/26 07:14:54;;;;;;;7.70;1.83;;;;;;;8.04;100.00;97661.63;5032171;28;20053;-91
2023/03/26 07:17:19;;;;;;;5.82;1.23;;;;;;;8.07;100.00;97645.03;5021023;28;20502;-80
2023/03/26 07:19:44;;;;;;;2.28;0.82;;;;;;;8.18;100.00;97657.81;5037936;28;20053;-80
2023/03/26 07:22:17;;;;;;;5.15;0.90;;;;;;;8.13;100.00;97663.84;5033052;28;20043;-82
2023/03/26 07:24:43;;;;;;;3.80;1.00;;;;;;;7.80;100.00;97671.25;5024527;28;20025;-80
2023/03/26 07:27:11;;;;;;;3.03;1.10;;;;;;;7.61;100.00;97681.88;5038989;28;20041;-83
2023/03/26 07:29:47;;;;;;;8.03;1.10;;;;;;;7.53;100.00;97684.81;5029721;28;20060;-75
2023/03/26 07:32:26;;;;;;;4.82;1.00;;;;;;;7.40;100.00;97647.19;5033882;28;20035;-83
2023/03/26 07:34:59;;;;;;;3.90;1.00;;;;;;;7.57;100.00;97669.91;5033450;28;20033;-86
2023/03/26 07:37:41;;;;;;;5.63;1.75;;;;;;;7.50;100.00;97649.44;5037826;28;20017;-87
2023/03/26 07:40:23;;;;;;;5.18;1.00;;;;;;;7.44;100.00;97646.56;5033109;28;20029;-80
2023/03/26 07:42:56;;;;;;;5.82;1.20;;;;;;;7.52;100.00;97658.94;5028176;28;20060;-80
2023/03/26 07:45:32;;;;;;;2.97;1.02;;;;;;;7.50;100.00;97660.19;5036004;28;20026;-77
2023/03/26 07:47:58;;;;;;;6.18;1.25;;;;;;;7.57;100.00;97659.13;5013152;28;20037;-79
2023/03/26 07:50:25;;;;;;;4.90;1.13;;;;;;;7.52;100.00;97672.41;5031178;28;20022;-82
2023/03/26 07:52:52;;;;;;;5.25;1.33;;;;;;;7.33;100.00;97662.50;5026994;28;20120;-79
2023/03/26 07:55:18;;;;;;;5.07;1.40;;;;;;;7.25;100.00;97659.00;5017889;28;20080;-75
2023/03/26 07:58:01;;;;;;;6.75;1.25;;;;;;;7.25;100.00;97675.13;5031344;28;20021;-82
2023/03/26 08:00:34;;;;;;;5.22;1.08;;;;;;;7.15;100.00;97668.53;5017685;28;20025;-78
2023/03/26 08:03:15;;;;;;;4.38;1.45;;;;;;;7.09;100.00;97670.19;5031669;28;20041;-83
2023/03/26 08:06:00;;;;;;;10.43;2.30;;;;;;;7.06;100.00;97677.88;5010127;28;20029;-84
2023/03/26 08:08:39;;;;;;;11.15;2.00;;;;;;;6.85;100.00;97662.78;5036327;28;20480;-83
2023/03/26 08:11:37;;;;;;;;;;;;;;;6.89;100.00;97664.00;5021205;28;20033;-82
2023/03/26 08:14:40;;;;;;;6.25;1.35;;;;;;;6.81;100.00;97667.72;4972579;28;19912;-81
2023/03/26 08:17:12;;;;;;;6.18;1.50;;;;;;;6.64;100.00;97658.44;5007730;28;20033;-84
2023/03/26 08:20:10;;;;;;;4.35;1.35;;;;;;;6.73;100.00;97678.69;5027273;28;20057;-78
2023/03/26 08:22:49;;;;;;;13.43;1.67;;;;;;;6.62;100.00;97652.44;5011464;28;20075;-84
2023/03/26 08:25:37;;;;;;;7.70;1.48;;;;;;;6.80;100.00;97679.53;5017638;28;20543;-79
2023/03/26 08:28:25;;;;;;;9.35;1.67;;;;;;;6.81;100.00;97662.34;5013374;28;20112;-80
2023/03/26 08:30:53;;;;;;;9.25;1.30;;;;;;;6.74;100.00;97653.50;5023662;28;20032;-79
2023/03/26 08:33:20;;;;;;;4.00;1.30;;;;;;;6.68;100.00;97654.28;5010659;28;20047;-76
2023/03/26 08:35:47;;;;;;;5.38;1.35;;;;;;;6.62;100.00;97658.63;5028122;28;20391;-77
2023/03/26 08:38:15;;;;;;;5.93;1.30;;;;;;;6.35;100.00;97628.25;5015103;28;20026;-80
2023/03/26 08:41:13;;;;;;;5.80;1.45;;;;;;;6.39;100.00;97642.09;5006449;28;20044;-74
2023/03/26 08:44:03;;;;;;;5.90;1.35;;;;;;;6.34;100.00;97642.69;5006718;28;20097;-75
2023/03/26 08:46:34;;;;;;;7.22;1.55;;;;;;;6.36;100.00;97648.69;5009469;28;20036;-75
2023/03/26 08:49:42;;;;;;;6.18;1.55;;;;;;;6.31;100.00;97638.59;5021642;28;20026;-79
2023/03/26 08:52:31;;;;;;;5.65;1.23;;;;;;;6.40;100.00;97641.06;5019922;28;20428;-80
2023/03/26 08:55:35;;;;;;;5.45;1.05;;;;;;;6.38;100.00;97648.50;5033401;28;20024;-89
2023/03/26 08:58:24;;;;;;;8.45;1.42;;;;;;;6.32;100.00;97659.03;5015983;28;20042;-83
2023/03/26 09:01:05;;;;;;;10.18;1.55;;;;;;;6.31;100.00;97649.34;5032258;28;20064;-82
2023/03/26 09:03:43;;;;;;;10.45;1.60;;;;;;;6.33;100.00;97652.63;5023676;28;20032;-78
2023/03/26 09:06:20;;;;;;;7.57;1.17;;;;;;;6.33;100.00;97641.06;5031208;28;20033;-80
2023/03/26 09:09:00;;;;;;;5.68;1.15;;;;;;;6.36;100.00;97646.00;5014676;28;20446;-79
2023/03/26 09:11:26;;;;;;;6.00;2.38;;;;;;;6.53;100.00;97641.91;5026797;28;20028;-75
2023/03/26 09:14:03;;;;;;;4.57;1.20;;;;;;;6.61;100.00;97624.75;5016783;28;20115;-75
2023/03/26 09:16:45;;;;;;;5.93;1.52;;;;;;;6.61;100.00;97619.38;5029500;28;20029;-79
2023/03/26 09:19:19;;;;;;;6.97;1.38;;;;;;;6.52;100.00;97566.88;5011133;28;20083;-73
2023/03/26 09:22:06;;;;;;;5.35;1.27;;;;;;;6.66;100.00;97600.78;5027630;28;20034;-74
2023/03/26 09:24:56;;;;;;;5.95;1.08;;;;;;;6.74;100.00;97638.19;5025577;28;20514;-76
2023/03/26 09:27:48;;;;;;;6.43;1.60;;;;;;;6.89;100.00;97642.50;5005372;28;20071;-73
2023/03/26 09:30:25;;;;;;;5.07;1.42;;;;;;;6.97;100.00;97650.38;5031037;28;20364;-73
2023/03/26 09:33:15;;;;;;;8.40;1.20;;;;;;;7.05;100.00;97660.91;5034482;28;20498;-73
2023/03/26 09:35:50;;;;;;;4.60;1.30;;;;;;;7.57;100.00;97643.00;5028290;28;20079;-73
2023/03/26 09:38:31;;;;;;;7.97;1.65;;;;;;;8.06;100.00;97646.06;5034491;28;21406;-74
2023/03/26 09:41:24;;;;;;;8.85;1.90;;;;;;;8.35;100.00;97628.47;5038058;28;20026;-74
2023/03/26 09:44:14;;;;;;;10.40;1.83;;;;;;;8.50;100.00;97598.56;5031060;28;20040;-73
2023/03/26 09:52:17;;;;;;;6.30;2.28;;;;;;;9.28;100.00;97592.63;5038708;23;20058;-73
2023/03/26 09:55:19;;;;;;;4.18;1.63;;;;;;;9.22;100.00;97580.00;5015825;28;20032;-74
2023/03/26 09:57:56;;;;;;;9.93;2.13;;;;;;;8.97;100.00;97577.38;5010581;28;20493;-73
2023/03/26 10:00:38;;;;;;;4.45;1.15;;;;;;;8.58;100.00;97581.28;5027040;28;20041;-73
2023/03/26 10:03:10;;;;;;;3.90;1.27;;;;;;;8.47;100.00;97594.44;5011106;28;20078;-73
2023/03/26 10:06:01;;;;;;;5.72;2.00;;;;;;;8.69;100.00;97599.44;5034367;28;20029;-73
2023/03/26 10:08:46;;;;;;;5.97;1.90;;;;;;;8.96;100.00;97581.97;5023666;28;20389;-72
2023/03/26 10:11:32;;;;;;;5.82;1.70;;;;;;;9.20;100.00;97574.03;5030911;28;20029;-73
2023/03/26 10:14:31;;;;;;;4.05;1.52;;;;;;;9.30;100.00;97574.34;5034809;28;20029;-74
2023/03/26 10:17:03;;;;;;;5.85;1.92;;;;;;;9.57;100.00;97576.72;5007461;28;20029;-73
2023/03/26 10:19:58;;;;;;;5.28;1.65;;;;;;;9.86;100.00;97558.88;5024267;28;20032;-73
2023/03/26 10:22:41;;;;;;;6.28;1.50;;;;;;;10.21;100.00;97558.97;5015726;28;20026;-74
2023/03/26 10:25:39;;;;;;;5.75;1.23;;;;;;;12.22;100.00;97548.69;5031584;28;20104;-74
2023/03/26 10:28:32;;;;;;;6.28;1.60;;;;;;;14.19;100.00;97539.94;5033866;28;20027;-73
2023/03/26 10:31:04;;;;;;;7.20;1.80;;;;;;;17.38;100.00;97531.75;5023474;28;20030;-74
2023/03/26 10:34:03;;;;;;;6.28;1.80;;;;;;;19.99;100.00;97522.19;5029270;28;20096;-74
2023/03/26 10:36:35;;;;;;;5.18;1.45;;;;;;;21.75;88.54;97535.44;4979239;28;20026;-75
2023/03/26 10:39:28;;;;;;;4.60;1.08;;;;;;;21.77;71.60;97538.66;5034422;28;20036;-75
2023/03/26 10:42:18;;;;;;;4.10;1.30;;;;;;;19.17;86.60;97547.81;5024289;28;20048;-75
2023/03/26 10:45:06;;;;;;;4.78;1.25;;;;;;;21.97;73.35;97529.97;5028906;28;20383;-74
2023/03/26 10:47:46;;;;;;;4.43;1.15;;;;;;;22.69;65.37;97529.19;5031584;28;20021;-74
2023/03/26 10:50:40;;;;;;;2.15;0.90;;;;;;;23.80;60.19;97525.69;5031442;28;20041;-74
2023/03/26 10:53:19;;;;;;;4.13;0.93;;;;;;;23.10;57.77;97524.56;4999308;28;20061;-74
2023/03/26 10:55:51;;;;;;;4.22;1.25;;;;;;;19.46;71.26;97512.13;5034715;28;20022;-74
2023/03/26 10:58:25;;;;;;;1.90;0.80;;;;;;;19.04;97.51;97524.66;5027897;28;20033;-76
2023/03/26 11:01:19;;;;;;;1.23;0.65;;;;;;;19.69;75.31;97521.47;5016049;28;20029;-81
2023/03/26 11:03:55;;;;;;;2.20;0.70;;;;;;;18.28;75.87;97511.59;5014916;28;20035;-80
2023/03/26 11:06:51;;;;;;;2.55;0.82;;;;;;;21.39;67.74;97528.69;5018449;28;20151;-78
2023/03/26 11:09:35;;;;;;;2.85;0.90;;;;;;;21.09;60.14;97518.22;5022092;28;20037;-78
2023/03/26 11:12:35;;;;;;;4.50;0.70;;;;;;;23.59;52.10;97508.88;5036858;28;20018;-78
2023/03/26 11:15:00;;;;;;;2.35;0.60;;;;;;;23.61;51.59;97495.56;5018791;28;20552;-79
2023/03/26 11:17:28;;;;;;;2.70;0.60;;;;;;;25.55;45.85;97489.25;5024662;28;20024;-79
2023/03/26 11:20:19;;;;;;;3.35;0.80;;;;;;;24.17;47.68;97480.09;5023826;28;20378;-80
2023/03/26 11:23:17;;;;;;;2.63;0.80;;;;;;;24.96;45.77;97466.19;5042146;28;20482;-78
2023/03/26 11:25:59;;;;;;;2.03;0.68;;;;;;;28.24;43.79;97484.09;5040430;28;20034;-78
2023/03/26 11:28:50;;;;;;;1.35;0.45;;;;;;;25.85;44.39;97474.63;5011045;28;20029;-78
2023/03/26 11:31:23;;;;;;;2.85;0.60;;;;;;;23.16;45.56;97484.66;5018175;28;20037;-79
2023/03/26 11:33:56;;;;;;;1.95;0.70;;;;;;;22.09;48.63;97479.88;5019008;28;20034;-79
2023/03/26 11:36:28;;;;;;;2.45;0.50;;;;;;;23.84;44.55;97458.44;5013349;28;20164;-73
2023/03/26 11:38:58;;;;;;;1.80;0.60;;;;;;;25.11;42.58;97468.41;5026262;28;20406;-75
2023/03/26 11:41:27;;;;;;;3.40;0.70;;;;;;;20.22;47.96;97484.75;5038737;28;20115;-79
2023/03/26 11:44:01;;;;;;;1.80;0.50;;;;;;;16.98;54.46;97500.72;5025586;28;20029;-82
2023/03/26 11:46:27;;;;;;;2.53;0.73;;;;;;;15.77;61.08;97482.09;5027340;28;20060;-77
2023/03/26 11:48:58;;;;;;;2.35;0.50;;;;;;;14.81;64.13;97505.09;5027295;28;20456;-81
2023/03/26 11:51:35;;;;;;;1.63;0.55;;;;;;;14.99;66.37;97468.44;5025931;28;20025;-85
2023/03/26 11:54:02;;;;;;;2.38;0.73;;;;;;;13.78;72.46;97490.59;5022484;28;20033;-80
2023/03/26 11:56:32;;;;;;;2.28;0.40;;;;;;;13.74;82.06;97494.09;5025524;28;20093;-82
2023/03/26 11:59:04;;;;;;;0.95;0.40;;;;;;;15.25;69.33;97455.75;5006497;28;20037;-81
2023/03/26 12:02:08;;;;;;;1.70;0.40;;;;;;;17.49;61.26;97484.13;5022234;28;20017;-81
2023/03/26 12:04:36;;;;;;;1.55;0.47;;;;;;;20.54;55.16;97480.44;5006535;28;20038;-79
2023/03/26 12:07:19;;;;;;;1.00;0.40;;;;;;;21.00;50.56;97461.19;5019299;28;20030;-80